createdAt,value
2022-08-07T00:00:46.490Z,18.13
2022-08-07T00:02:39.816Z,17.97
2022-08-07T00:02:46.425Z,18.05
2022-08-07T00:03:47.270Z,17.97
2022-08-07T00:04:46.407Z,18.01
2022-08-07T00:05:46.441Z,17.94
2022-08-07T00:06:51.798Z,17.98
2022-08-07T00:07:46.270Z,17.89
2022-08-07T00:08:46.239Z,17.89
2022-08-07T00:10:04.653Z,17.85
2022-08-07T00:10:47.880Z,17.83
2022-08-07T00:11:54.519Z,17.79
2022-08-07T00:12:57.778Z,17.72
2022-08-07T00:13:46.078Z,17.79
2022-08-07T00:14:46.046Z,17.72
2022-08-07T00:15:46.766Z,17.76
2022-08-07T00:16:45.984Z,17.67
2022-08-07T00:17:45.953Z,17.64
2022-08-07T00:18:45.920Z,17.60
2022-08-07T00:20:00.903Z,17.63
2022-08-07T00:20:45.858Z,17.56
2022-08-07T00:21:56.679Z,17.56
2022-08-07T00:22:51.748Z,17.49
2022-08-07T00:23:45.764Z,17.45
2022-08-07T00:24:45.738Z,17.52
2022-08-07T00:25:52.119Z,17.51
2022-08-07T00:26:58.895Z,17.45
2022-08-07T00:27:52.913Z,17.33
2022-08-07T00:28:55.474Z,17.44
2022-08-07T00:29:45.573Z,17.29
2022-08-07T00:30:45.539Z,17.36
2022-08-07T00:31:45.511Z,17.36
2022-08-07T00:32:45.478Z,17.36
2022-08-07T00:33:47.732Z,17.26
2022-08-07T00:34:45.415Z,17.24
2022-08-07T00:35:49.460Z,17.27
2022-08-07T00:36:45.360Z,17.29
2022-08-07T00:37:47.970Z,17.19
2022-08-07T00:38:45.287Z,17.20
2022-08-07T00:39:45.447Z,17.12
2022-08-07T00:40:45.228Z,17.12
2022-08-07T00:41:45.414Z,17.14
2022-08-07T00:42:45.155Z,17.14
2022-08-07T00:44:00.471Z,17.08
2022-08-07T00:44:45.092Z,17.02
2022-08-07T00:45:46.560Z,17.08
2022-08-07T00:46:45.027Z,17.09
2022-08-07T00:48:09.681Z,17.02
2022-08-07T00:48:44.963Z,17.01
2022-08-07T00:50:19.185Z,16.97
2022-08-07T00:50:50.694Z,16.96
2022-08-07T00:51:56.739Z,17.01
2022-08-07T00:52:47.466Z,17.02
2022-08-07T00:53:50.466Z,16.91
2022-08-07T00:54:44.770Z,16.93
2022-08-07T00:56:02.447Z,16.86
2022-08-07T00:56:44.704Z,16.89
2022-08-07T00:57:44.675Z,16.83
2022-08-07T00:58:47.096Z,16.90
2022-08-07T00:59:44.607Z,16.87
2022-08-07T01:00:53.342Z,16.79
2022-08-07T01:01:44.905Z,16.83
2022-08-07T01:02:44.513Z,16.81
2022-08-07T01:03:55.485Z,16.78
2022-08-07T01:04:44.452Z,16.69
2022-08-07T01:05:53.584Z,16.69
2022-08-07T01:06:44.382Z,16.69
2022-08-07T01:07:44.352Z,16.76
2022-08-07T01:08:53.339Z,16.72
2022-08-07T01:10:05.776Z,16.74
2022-08-07T01:10:54.295Z,16.66
2022-08-07T01:12:08.979Z,16.69
2022-08-07T01:12:53.688Z,16.60
2022-08-07T01:13:54.374Z,16.66
2022-08-07T01:14:44.983Z,16.65
2022-08-07T01:16:05.548Z,16.57
2022-08-07T01:16:47.341Z,16.53
2022-08-07T01:17:44.028Z,16.50
2022-08-07T01:18:43.997Z,16.57
2022-08-07T01:19:52.353Z,16.54
2022-08-07T01:20:43.930Z,16.54
2022-08-07T01:21:43.896Z,16.58
2022-08-07T01:22:54.211Z,16.49
2022-08-07T01:23:46.715Z,16.39
2022-08-07T01:24:43.799Z,16.35
2022-08-07T01:25:55.296Z,16.42
2022-08-07T01:26:43.734Z,16.42
2022-08-07T01:27:51.503Z,16.46
2022-08-07T01:28:45.983Z,16.29
2022-08-07T01:29:43.635Z,16.31
2022-08-07T01:30:43.604Z,16.36
2022-08-07T01:31:48.113Z,16.38
2022-08-07T01:32:43.543Z,16.26
2022-08-07T01:33:56.325Z,16.36
2022-08-07T01:34:43.519Z,16.31
2022-08-07T01:35:54.418Z,16.28
2022-08-07T01:36:44.172Z,16.32
2022-08-07T01:37:43.382Z,16.31
2022-08-07T01:38:43.345Z,16.29
2022-08-07T01:39:46.891Z,16.33
2022-08-07T01:40:43.278Z,16.24
2022-08-07T01:41:55.260Z,16.21
2022-08-07T01:42:57.303Z,16.28
2022-08-07T01:43:43.183Z,16.32
2022-08-07T01:44:43.152Z,16.13
2022-08-07T01:45:43.124Z,16.28
2022-08-07T01:46:43.085Z,16.16
2022-08-07T01:48:29.296Z,16.26
2022-08-07T01:48:46.730Z,16.15
2022-08-07T01:49:43.002Z,16.17
2022-08-07T01:50:43.358Z,16.16
2022-08-07T01:52:01.573Z,16.17
2022-08-07T01:52:49.789Z,16.05
2022-08-07T01:54:09.086Z,16.08
2022-08-07T01:54:42.826Z,16.05
2022-08-07T01:55:42.789Z,16.09
2022-08-07T01:56:42.758Z,16.01
2022-08-07T01:58:01.200Z,16.09
2022-08-07T01:58:45.201Z,16.13
2022-08-07T01:59:43.842Z,16.01
2022-08-07T02:00:49.052Z,16.02
2022-08-07T02:01:59.851Z,15.90
2022-08-07T02:03:19.399Z,15.91
2022-08-07T02:03:48.805Z,15.90
2022-08-07T02:04:52.603Z,15.91
2022-08-07T02:05:47.890Z,15.90
2022-08-07T02:06:42.432Z,15.88
2022-08-07T02:07:50.129Z,15.88
2022-08-07T02:08:42.519Z,15.86
2022-08-07T02:09:52.757Z,15.77
2022-08-07T02:10:42.491Z,15.83
2022-08-07T02:12:04.657Z,15.84
2022-08-07T02:12:42.236Z,15.83
2022-08-07T02:13:59.765Z,15.83
2022-08-07T02:14:42.164Z,15.84
2022-08-07T02:15:42.136Z,15.77
2022-08-07T02:16:42.105Z,15.91
2022-08-07T02:17:42.077Z,15.79
2022-08-07T02:18:47.273Z,15.84
2022-08-07T02:20:07.016Z,15.72
2022-08-07T02:20:41.976Z,15.76
2022-08-07T02:21:56.490Z,15.79
2022-08-07T02:22:43.775Z,15.79
2022-08-07T02:23:41.874Z,15.75
2022-08-07T02:24:44.592Z,15.73
2022-08-07T02:26:30.506Z,15.79
2022-08-07T02:26:41.770Z,15.75
2022-08-07T02:27:41.741Z,15.72
2022-08-07T02:28:41.710Z,15.73
2022-08-07T02:29:48.718Z,15.77
2022-08-07T02:30:41.645Z,15.73
2022-08-07T02:31:41.606Z,15.72
2022-08-07T02:33:00.773Z,15.58
2022-08-07T02:34:01.878Z,15.70
2022-08-07T02:34:48.971Z,15.64
2022-08-07T02:36:30.213Z,15.61
2022-08-07T02:36:41.476Z,15.55
2022-08-07T02:37:43.821Z,15.64
2022-08-07T02:38:50.928Z,15.61
2022-08-07T02:40:01.771Z,15.64
2022-08-07T02:40:41.372Z,15.54
2022-08-07T02:41:41.344Z,15.59
2022-08-07T02:42:41.244Z,15.52
2022-08-07T02:43:41.209Z,15.59
2022-08-07T02:44:45.812Z,15.54
2022-08-07T02:46:01.731Z,15.52
2022-08-07T02:46:46.788Z,15.55
2022-08-07T02:47:45.594Z,15.55
2022-08-07T02:48:41.047Z,15.42
2022-08-07T02:49:57.877Z,15.54
2022-08-07T02:50:40.991Z,15.54
2022-08-07T02:51:49.586Z,15.54
2022-08-07T02:52:40.914Z,15.49
2022-08-07T02:53:40.885Z,15.44
2022-08-07T02:54:40.852Z,15.44
2022-08-07T02:56:03.327Z,15.39
2022-08-07T02:56:40.784Z,15.42
2022-08-07T02:57:40.750Z,15.43
2022-08-07T02:58:47.176Z,15.39
2022-08-07T02:59:40.686Z,15.39
2022-08-07T03:00:40.719Z,15.28
2022-08-07T03:01:40.633Z,15.29
2022-08-07T03:02:54.049Z,15.35
2022-08-07T03:03:49.005Z,15.27
2022-08-07T03:04:40.518Z,15.29
2022-08-07T03:05:40.482Z,15.27
2022-08-07T03:06:40.451Z,15.24
2022-08-07T03:08:05.301Z,15.21
2022-08-07T03:08:40.387Z,15.21
2022-08-07T03:09:43.444Z,15.18
2022-08-07T03:10:46.201Z,15.10
2022-08-07T03:11:52.361Z,15.09
2022-08-07T03:12:40.253Z,15.21
2022-08-07T03:13:49.932Z,15.07
2022-08-07T03:14:40.187Z,15.14
2022-08-07T03:15:55.823Z,15.09
2022-08-07T03:16:40.121Z,15.07
2022-08-07T03:17:54.075Z,15.11
2022-08-07T03:18:40.054Z,15.10
2022-08-07T03:19:40.016Z,15.11
2022-08-07T03:20:39.984Z,15.10
2022-08-07T03:21:39.952Z,15.07
2022-08-07T03:22:39.923Z,15.06
2022-08-07T03:24:21.079Z,15.06
2022-08-07T03:24:39.852Z,15.00
2022-08-07T03:25:40.498Z,15.09
2022-08-07T03:26:42.889Z,15.14
2022-08-07T03:28:09.057Z,15.10
2022-08-07T03:28:39.984Z,15.02
2022-08-07T03:29:39.685Z,15.04
2022-08-07T03:30:39.651Z,15.06
2022-08-07T03:31:42.706Z,15.11
2022-08-07T03:32:39.584Z,15.06
2022-08-07T03:33:40.215Z,14.99
2022-08-07T03:34:39.604Z,15.03
2022-08-07T03:35:49.890Z,15.02
2022-08-07T03:36:39.454Z,15.02
2022-08-07T03:37:46.234Z,15.02
2022-08-07T03:38:39.383Z,15.03
2022-08-07T03:39:59.948Z,15.00
2022-08-07T03:40:39.338Z,15.00
2022-08-07T03:41:41.971Z,14.97
2022-08-07T03:42:39.252Z,14.92
2022-08-07T03:43:39.217Z,14.88
2022-08-07T03:44:39.188Z,14.92
2022-08-07T03:45:39.607Z,14.92
2022-08-07T03:47:13.064Z,14.94
2022-08-07T03:47:48.007Z,14.86
2022-08-07T03:48:39.051Z,14.86
2022-08-07T03:49:39.017Z,14.82
2022-08-07T03:50:38.988Z,14.88
2022-08-07T03:51:47.107Z,14.84
2022-08-07T03:52:38.916Z,14.81
2022-08-07T03:54:05.817Z,14.88
2022-08-07T03:54:55.207Z,14.91
2022-08-07T03:55:58.488Z,14.85
2022-08-07T03:56:38.780Z,14.88
2022-08-07T03:58:32.543Z,14.85
2022-08-07T03:59:08.456Z,14.79
2022-08-07T03:59:46.618Z,14.79
2022-08-07T04:00:38.693Z,14.85
2022-08-07T04:01:38.658Z,14.82
2022-08-07T04:02:41.137Z,14.79
2022-08-07T04:03:49.506Z,14.86
2022-08-07T04:04:38.521Z,14.86
2022-08-07T04:05:40.455Z,14.86
2022-08-07T04:06:38.876Z,14.77
2022-08-07T04:07:42.808Z,14.79
2022-08-07T04:08:38.382Z,14.77
2022-08-07T04:09:45.207Z,14.70
2022-08-07T04:10:38.759Z,14.70
2022-08-07T04:12:25.746Z,14.77
2022-08-07T04:12:38.249Z,14.59
2022-08-07T04:14:10.457Z,14.69
2022-08-07T04:14:45.995Z,14.66
2022-08-07T04:15:38.143Z,14.65
2022-08-07T04:16:38.114Z,14.66
2022-08-07T04:18:57.083Z,14.60
2022-08-07T04:19:00.151Z,14.62
2022-08-07T04:19:52.666Z,14.62
2022-08-07T04:20:37.978Z,14.58
2022-08-07T04:21:37.948Z,14.54
2022-08-07T04:22:37.921Z,14.54
2022-08-07T04:23:43.360Z,14.51
2022-08-07T04:24:38.996Z,14.60
2022-08-07T04:25:40.839Z,14.53
2022-08-07T04:26:37.778Z,14.51
2022-08-07T04:27:43.903Z,14.51
2022-08-07T04:28:37.717Z,14.48
2022-08-07T04:29:40.304Z,14.47
2022-08-07T04:30:55.161Z,14.47
2022-08-07T04:31:38.953Z,14.45
2022-08-07T04:32:37.574Z,14.47
2022-08-07T04:33:37.539Z,14.48
2022-08-07T04:34:39.387Z,14.36
2022-08-07T04:35:37.476Z,14.40
2022-08-07T04:36:37.437Z,14.36
2022-08-07T04:37:52.954Z,14.36
2022-08-07T04:38:37.368Z,14.36
2022-08-07T04:39:37.362Z,14.45
2022-08-07T04:40:51.237Z,14.41
2022-08-07T04:41:37.270Z,14.37
2022-08-07T04:42:37.236Z,14.36
2022-08-07T04:44:12.689Z,14.29
2022-08-07T04:44:37.168Z,14.41
2022-08-07T04:46:00.684Z,14.30
2022-08-07T04:46:40.020Z,14.37
2022-08-07T04:48:01.615Z,14.35
2022-08-07T04:48:37.033Z,14.36
2022-08-07T04:49:37.818Z,14.37
2022-08-07T04:50:37.037Z,14.33
2022-08-07T04:51:36.931Z,14.40
2022-08-07T04:52:36.894Z,14.33
2022-08-07T04:54:01.000Z,14.37
2022-08-07T04:54:36.970Z,14.35
2022-08-07T04:58:11.441Z,14.36
2022-08-07T04:58:12.865Z,14.40
2022-08-07T04:58:24.123Z,14.37
2022-08-07T04:59:09.203Z,14.32
2022-08-07T05:00:10.702Z,14.41
2022-08-07T05:00:36.938Z,14.37
2022-08-07T05:01:36.685Z,14.37
2022-08-07T05:02:36.559Z,14.40
2022-08-07T05:04:00.113Z,14.44
2022-08-07T05:04:36.490Z,14.37
2022-08-07T05:05:52.970Z,14.41
2022-08-07T05:06:43.592Z,14.35
2022-08-07T05:07:37.099Z,14.41
2022-08-07T05:08:59.570Z,14.48
2022-08-07T05:09:45.780Z,14.41
2022-08-07T05:10:36.285Z,14.36
2022-08-07T05:11:57.262Z,14.55
2022-08-07T05:12:36.220Z,14.51
2022-08-07T05:14:52.442Z,14.45
2022-08-07T05:14:55.290Z,14.47
2022-08-07T05:15:36.124Z,14.51
2022-08-07T05:16:36.086Z,14.53
2022-08-07T05:17:52.096Z,14.50
2022-08-07T05:18:36.012Z,14.47
2022-08-07T05:19:45.217Z,14.47
2022-08-07T05:20:35.958Z,14.53
2022-08-07T05:21:59.118Z,14.54
2022-08-07T05:22:35.883Z,14.54
2022-08-07T05:23:35.858Z,14.58
2022-08-07T05:24:39.342Z,14.62
2022-08-07T05:26:13.701Z,14.62
2022-08-07T05:26:35.746Z,14.68
2022-08-07T05:28:16.189Z,14.59
2022-08-07T05:28:35.677Z,14.65
2022-08-07T05:29:48.066Z,14.77
2022-08-07T05:30:35.615Z,14.69
2022-08-07T05:31:37.940Z,14.65
2022-08-07T05:32:35.546Z,14.68
2022-08-07T05:33:36.926Z,14.72
2022-08-07T05:34:35.478Z,14.77
2022-08-07T05:35:41.763Z,14.73
2022-08-07T05:36:36.028Z,14.69
2022-08-07T05:37:37.768Z,14.82
2022-08-07T05:39:00.225Z,14.82
2022-08-07T05:40:17.103Z,14.79
2022-08-07T05:40:35.342Z,14.89
2022-08-07T05:42:01.193Z,14.79
2022-08-07T05:42:36.993Z,14.81
2022-08-07T05:43:50.153Z,14.97
2022-08-07T05:44:35.141Z,14.97
2022-08-07T05:45:47.690Z,14.99
2022-08-07T05:46:35.071Z,14.99
2022-08-07T05:47:38.513Z,14.97
2022-08-07T05:48:35.006Z,15.06
2022-08-07T05:49:40.436Z,15.06
2022-08-07T05:50:34.938Z,15.07
2022-08-07T05:51:40.015Z,14.99
2022-08-07T05:52:34.871Z,15.04
2022-08-07T05:54:12.422Z,15.09
2022-08-07T05:54:53.521Z,15.09
2022-08-07T05:56:03.681Z,15.09
2022-08-07T05:56:34.740Z,15.15
2022-08-07T05:57:38.117Z,15.18
2022-08-07T05:58:36.837Z,15.21
2022-08-07T05:59:38.913Z,15.17
2022-08-07T06:00:34.605Z,15.22
2022-08-07T06:01:34.745Z,15.25
2022-08-07T06:02:34.537Z,15.29
2022-08-07T06:03:53.257Z,15.31
2022-08-07T06:04:34.466Z,15.29
2022-08-07T06:05:34.448Z,15.36
2022-08-07T06:06:34.400Z,15.40
2022-08-07T06:08:13.361Z,15.37
2022-08-07T06:08:37.823Z,15.42
2022-08-07T06:10:04.745Z,15.43
2022-08-07T06:10:34.274Z,15.47
2022-08-07T06:11:34.236Z,15.55
2022-08-07T06:12:34.201Z,15.59
2022-08-07T06:14:10.595Z,15.55
2022-08-07T06:14:34.153Z,15.73
2022-08-07T06:15:39.353Z,15.65
2022-08-07T06:16:34.068Z,15.70
2022-08-07T06:17:37.906Z,15.65
2022-08-07T06:18:34.003Z,15.72
2022-08-07T06:19:52.233Z,15.72
2022-08-07T06:20:50.011Z,15.76
2022-08-07T06:22:15.241Z,15.82
2022-08-07T06:22:38.836Z,15.88
2022-08-07T06:24:37.130Z,15.90
2022-08-07T06:24:45.946Z,15.92
2022-08-07T06:25:34.832Z,15.92
2022-08-07T06:26:33.739Z,15.91
2022-08-07T06:27:59.785Z,15.97
2022-08-07T06:28:33.671Z,16.01
2022-08-07T06:29:33.640Z,16.08
2022-08-07T06:30:37.410Z,16.01
2022-08-07T06:31:38.361Z,16.05
2022-08-07T06:32:33.540Z,16.17
2022-08-07T06:33:33.508Z,16.15
2022-08-07T06:34:33.476Z,16.13
2022-08-07T06:35:45.600Z,16.05
2022-08-07T06:36:35.378Z,16.23
2022-08-07T06:37:43.661Z,16.23
2022-08-07T06:38:33.343Z,16.24
2022-08-07T06:40:16.426Z,16.32
2022-08-07T06:40:35.189Z,16.38
2022-08-07T06:42:01.805Z,16.38
2022-08-07T06:42:35.352Z,16.41
2022-08-07T06:43:39.556Z,16.46
2022-08-07T06:44:34.277Z,16.53
2022-08-07T06:45:33.115Z,16.51
2022-08-07T06:46:35.204Z,16.51
2022-08-07T06:47:48.190Z,16.56
2022-08-07T06:48:33.016Z,16.64
2022-08-07T06:49:32.985Z,16.64
2022-08-07T06:50:32.949Z,16.65
2022-08-07T06:51:33.714Z,16.74
2022-08-07T06:52:36.071Z,16.76
2022-08-07T06:55:30.154Z,16.75
2022-08-07T06:55:33.207Z,16.69
2022-08-07T06:55:47.977Z,16.76
2022-08-07T06:56:32.754Z,16.91
2022-08-07T06:57:43.633Z,16.86
2022-08-07T06:58:32.694Z,16.91
2022-08-07T07:00:14.539Z,16.93
2022-08-07T07:00:32.624Z,17.01
2022-08-07T07:01:41.798Z,17.06
2022-08-07T07:02:48.745Z,17.02
2022-08-07T07:03:48.787Z,17.04
2022-08-07T07:04:34.079Z,17.01
2022-08-07T07:06:04.074Z,17.11
2022-08-07T07:06:32.434Z,17.15
2022-08-07T07:07:58.606Z,17.16
2022-08-07T07:08:33.617Z,17.23
2022-08-07T07:09:32.336Z,17.26
2022-08-07T07:10:32.303Z,17.29
2022-08-07T07:12:07.484Z,17.34
2022-08-07T07:12:33.600Z,17.30
2022-08-07T07:13:56.131Z,17.34
2022-08-07T07:14:32.174Z,17.52
2022-08-07T07:15:35.748Z,17.48
2022-08-07T07:16:32.107Z,17.52
2022-08-07T07:17:39.202Z,17.52
2022-08-07T07:18:47.043Z,17.49
2022-08-07T07:19:55.776Z,17.60
2022-08-07T07:20:31.984Z,17.70
2022-08-07T07:22:04.153Z,17.71
2022-08-07T07:22:39.979Z,17.76
2022-08-07T07:24:08.527Z,17.79
2022-08-07T07:24:32.002Z,17.80
2022-08-07T07:26:35.320Z,17.87
2022-08-07T07:26:36.889Z,17.89
2022-08-07T07:27:35.547Z,17.98
2022-08-07T07:28:48.632Z,18.00
2022-08-07T07:29:56.170Z,18.00
2022-08-07T07:30:38.046Z,18.13
2022-08-07T07:31:39.773Z,18.15
2022-08-07T07:32:31.599Z,18.15
2022-08-07T07:33:31.571Z,18.07
2022-08-07T07:34:31.870Z,18.16
2022-08-07T07:35:33.495Z,18.15
2022-08-07T07:36:32.393Z,18.22
2022-08-07T07:37:45.148Z,18.28
2022-08-07T07:38:31.441Z,18.35
2022-08-07T07:39:35.809Z,18.37
2022-08-07T07:40:31.351Z,18.33
2022-08-07T07:42:02.015Z,18.34
2022-08-07T07:42:33.271Z,18.40
2022-08-07T07:43:47.769Z,18.47
2022-08-07T07:44:31.223Z,18.50
2022-08-07T07:46:37.611Z,18.55
2022-08-07T07:46:37.766Z,18.52
2022-08-07T07:47:52.003Z,18.65
2022-08-07T07:48:35.872Z,18.60
2022-08-07T07:50:35.902Z,18.65
2022-08-07T07:50:39.162Z,18.73
2022-08-07T07:51:31.002Z,18.73
2022-08-07T07:52:31.300Z,18.78
2022-08-07T07:53:30.940Z,18.84
2022-08-07T07:54:30.906Z,18.84
2022-08-07T07:55:37.741Z,18.90
2022-08-07T07:56:31.075Z,18.99
2022-08-07T07:57:51.882Z,18.92
2022-08-07T07:58:30.785Z,19.00
2022-08-07T07:59:52.799Z,19.02
2022-08-07T08:00:31.582Z,19.15
2022-08-07T08:02:04.723Z,19.14
2022-08-07T08:02:34.012Z,19.15
2022-08-07T08:04:06.507Z,19.15
2022-08-07T08:04:30.657Z,19.18
2022-08-07T08:05:50.846Z,19.22
2022-08-07T08:06:30.537Z,19.16
2022-08-07T08:07:35.354Z,19.31
2022-08-07T08:08:34.508Z,19.37
2022-08-07T08:09:30.441Z,19.44
2022-08-07T08:10:38.262Z,19.40
2022-08-07T08:11:59.384Z,19.55
2022-08-07T08:12:51.555Z,19.56
2022-08-07T08:13:36.718Z,19.52
2022-08-07T08:14:30.284Z,19.58
2022-08-07T08:15:57.712Z,19.56
2022-08-07T08:16:30.940Z,19.62
2022-08-07T08:17:57.822Z,19.67
2022-08-07T08:18:30.168Z,19.71
2022-08-07T08:20:16.381Z,19.74
2022-08-07T08:20:32.252Z,19.77
2022-08-07T08:21:56.014Z,19.82
2022-08-07T08:22:32.779Z,19.89
2022-08-07T08:23:30.011Z,19.88
2022-08-07T08:24:36.620Z,19.95
2022-08-07T08:25:42.799Z,19.99
2022-08-07T08:26:29.921Z,20.02
2022-08-07T08:27:33.616Z,20.11
2022-08-07T08:28:38.149Z,20.10
2022-08-07T08:29:31.384Z,20.16
2022-08-07T08:30:29.799Z,20.09
2022-08-07T08:31:30.237Z,20.16
2022-08-07T08:32:38.135Z,20.22
2022-08-07T08:33:33.178Z,20.21
2022-08-07T08:34:29.676Z,20.26
2022-08-07T08:35:39.378Z,20.34
2022-08-07T08:36:30.415Z,20.40
2022-08-07T08:38:01.039Z,20.44
2022-08-07T08:38:32.482Z,20.51
2022-08-07T08:39:38.996Z,20.48
2022-08-07T08:40:29.535Z,20.52
2022-08-07T08:41:53.597Z,20.58
2022-08-07T08:42:29.433Z,20.62
2022-08-07T08:43:42.195Z,20.65
2022-08-07T08:44:31.399Z,20.72
2022-08-07T08:45:58.306Z,20.69
2022-08-07T08:46:29.313Z,20.80
2022-08-07T08:47:29.553Z,20.77
2022-08-07T08:48:32.509Z,20.81
2022-08-07T08:49:33.580Z,20.95
2022-08-07T08:50:39.289Z,20.87
2022-08-07T08:51:49.694Z,21.02
2022-08-07T08:52:30.476Z,21.02
2022-08-07T08:53:29.491Z,20.95
2022-08-07T08:54:29.077Z,21.06
2022-08-07T08:55:55.398Z,21.03
2022-08-07T08:56:29.014Z,21.06
2022-08-07T08:57:30.385Z,21.06
2022-08-07T08:58:29.638Z,21.21
2022-08-07T08:59:28.927Z,21.17
2022-08-07T09:00:28.897Z,21.25
2022-08-07T09:01:29.913Z,21.07
2022-08-07T09:02:35.094Z,21.21
2022-08-07T09:03:47.525Z,21.30
2022-08-07T09:04:28.959Z,21.32
2022-08-07T09:05:36.875Z,21.36
2022-08-07T09:06:28.723Z,21.45
2022-08-07T09:07:28.963Z,21.42
2022-08-07T09:08:28.974Z,21.46
2022-08-07T09:09:30.178Z,21.54
2022-08-07T09:10:28.611Z,21.52
2022-08-07T09:11:43.385Z,21.58
2022-08-07T09:12:31.765Z,21.61
2022-08-07T09:13:37.588Z,21.70
2022-08-07T09:14:29.668Z,21.69
2022-08-07T09:16:25.159Z,21.82
2022-08-07T09:16:30.538Z,21.88
2022-08-07T09:17:33.926Z,22.00
2022-08-07T09:18:28.368Z,21.96
2022-08-07T09:19:53.744Z,21.96
2022-08-07T09:20:35.720Z,21.96
2022-08-07T09:21:34.395Z,22.02
2022-08-07T09:24:30.560Z,22.08
2022-08-07T09:24:32.199Z,22.06
2022-08-07T09:24:55.445Z,22.04
2022-08-07T09:25:28.167Z,22.08
2022-08-07T09:26:28.130Z,22.17
2022-08-07T09:27:28.906Z,22.17
2022-08-07T09:30:04.214Z,22.18
2022-08-07T09:30:06.307Z,22.18
2022-08-07T09:30:28.414Z,22.28
2022-08-07T09:31:28.005Z,22.28
2022-08-07T09:32:27.956Z,22.30
2022-08-07T09:33:52.441Z,22.35
2022-08-07T09:34:27.900Z,22.43
2022-08-07T09:36:02.988Z,22.45
2022-08-07T09:36:30.197Z,22.41
2022-08-07T09:37:47.787Z,22.53
2022-08-07T09:38:27.788Z,22.50
2022-08-07T09:39:54.506Z,22.51
2022-08-07T09:40:27.765Z,22.54
2022-08-07T09:41:27.867Z,22.57
2022-08-07T09:42:32.951Z,22.55
2022-08-07T09:44:03.211Z,22.65
2022-08-07T09:44:30.024Z,22.66
2022-08-07T09:47:25.584Z,22.73
2022-08-07T09:47:50.784Z,22.72
2022-08-07T09:48:00.863Z,22.76
2022-08-07T09:48:29.779Z,22.73
2022-08-07T09:50:02.567Z,22.83
2022-08-07T09:50:30.042Z,22.73
2022-08-07T09:52:16.758Z,22.91
2022-08-07T09:52:34.464Z,22.83
2022-08-07T09:53:27.354Z,22.85
2022-08-07T09:54:28.328Z,22.90
2022-08-07T09:55:29.287Z,22.99
2022-08-07T09:56:37.206Z,22.99
2022-08-07T09:57:28.281Z,22.96
2022-08-07T09:58:32.322Z,23.00
2022-08-07T09:59:37.144Z,23.05
2022-08-07T10:00:29.900Z,23.00
2022-08-07T10:01:51.152Z,23.10
2022-08-07T10:02:29.581Z,23.08
2022-08-07T10:04:05.808Z,23.18
2022-08-07T10:04:28.361Z,23.12
2022-08-07T10:05:59.050Z,23.15
2022-08-07T10:06:27.412Z,23.18
2022-08-07T10:07:39.887Z,23.32
2022-08-07T10:08:26.928Z,23.31
2022-08-07T10:09:42.647Z,23.41
2022-08-07T10:10:28.307Z,23.46
2022-08-07T10:12:00.573Z,23.50
2022-08-07T10:12:28.472Z,23.59
2022-08-07T10:13:55.420Z,23.59
2022-08-07T10:14:31.103Z,23.63
2022-08-07T10:15:26.725Z,23.68
2022-08-07T10:16:26.703Z,23.84
2022-08-07T10:17:28.972Z,23.78
2022-08-07T10:18:27.122Z,23.92
2022-08-07T10:19:26.615Z,23.88
2022-08-07T10:20:30.500Z,24.02
2022-08-07T10:22:14.942Z,23.92
2022-08-07T10:22:34.053Z,23.99
2022-08-07T10:24:05.007Z,24.01
2022-08-07T10:24:26.475Z,23.98
2022-08-07T10:25:42.333Z,24.03
2022-08-07T10:26:26.421Z,24.13
2022-08-07T10:27:26.571Z,24.11
2022-08-07T10:28:26.364Z,24.17
2022-08-07T10:29:26.338Z,24.17
2022-08-07T10:30:26.493Z,24.24
2022-08-07T10:31:26.279Z,24.23
2022-08-07T10:32:37.029Z,24.21
2022-08-07T10:34:06.504Z,24.30
2022-08-07T10:34:27.343Z,24.45
2022-08-07T10:35:26.171Z,24.47
2022-08-07T10:36:29.753Z,24.51
2022-08-07T10:37:48.264Z,24.58
2022-08-07T10:38:36.302Z,24.69
2022-08-07T10:39:41.417Z,24.78
2022-08-07T10:40:30.111Z,24.91
2022-08-07T10:41:52.413Z,24.91
2022-08-07T10:42:30.916Z,24.98
2022-08-07T10:43:34.804Z,25.06
2022-08-07T10:44:28.769Z,25.13
2022-08-07T10:45:44.610Z,25.03
2022-08-07T10:46:25.869Z,25.11
2022-08-07T10:47:27.035Z,25.22
2022-08-07T10:48:25.814Z,25.29
2022-08-07T10:49:49.485Z,25.23
2022-08-07T10:50:26.510Z,25.47
2022-08-07T10:51:39.530Z,25.36
2022-08-07T10:52:31.933Z,25.54
2022-08-07T10:53:25.682Z,25.54
2022-08-07T10:54:25.662Z,25.70
2022-08-07T10:55:38.226Z,25.68
2022-08-07T10:56:31.460Z,25.84
2022-08-07T10:57:34.730Z,25.93
2022-08-07T10:58:33.404Z,26.06
2022-08-07T10:59:25.524Z,26.22
2022-08-07T11:00:36.771Z,26.36
2022-08-07T11:01:25.553Z,26.53
2022-08-07T11:02:32.729Z,26.68
2022-08-07T11:03:28.031Z,26.83
2022-08-07T11:04:32.271Z,26.88
2022-08-07T11:05:25.375Z,26.99
2022-08-07T11:06:26.846Z,27.11
2022-08-07T11:07:58.526Z,27.18
2022-08-07T11:08:30.357Z,27.29
2022-08-07T11:10:09.746Z,27.32
2022-08-07T11:10:27.428Z,27.40
2022-08-07T11:11:25.223Z,27.55
2022-08-07T11:12:31.853Z,27.80
2022-08-07T11:14:43.941Z,27.89
2022-08-07T11:14:45.851Z,28.19
2022-08-07T11:15:31.578Z,28.47
2022-08-07T11:16:29.796Z,28.54
2022-08-07T11:17:45.298Z,28.66
2022-08-07T11:18:25.055Z,28.82
2022-08-07T11:19:27.251Z,28.98
2022-08-07T11:20:25.011Z,28.97
2022-08-07T11:21:24.988Z,29.12
2022-08-07T11:22:33.333Z,29.27
2022-08-07T11:23:30.848Z,29.42
2022-08-07T11:24:24.916Z,29.59
2022-08-07T11:25:24.892Z,29.61
2022-08-07T11:26:24.868Z,29.45
2022-08-07T11:27:33.520Z,29.57
2022-08-07T11:28:25.029Z,29.75
2022-08-07T11:29:42.727Z,29.63
2022-08-07T11:30:41.552Z,29.68
2022-08-07T11:31:24.756Z,29.84
2022-08-07T11:32:25.256Z,29.87
2022-08-07T11:33:54.207Z,30.16
2022-08-07T11:34:24.683Z,30.12
2022-08-07T11:35:25.322Z,30.31
2022-08-07T11:36:25.407Z,29.84
2022-08-07T11:37:24.619Z,29.98
2022-08-07T11:38:28.098Z,30.15
2022-08-07T11:39:24.592Z,30.32
2022-08-07T11:40:24.578Z,30.51
2022-08-07T11:41:29.661Z,30.69
2022-08-07T11:42:29.672Z,30.88
2022-08-07T11:43:41.347Z,30.99
2022-08-07T11:44:24.460Z,31.21
2022-08-07T11:45:35.683Z,31.36
2022-08-07T11:46:24.412Z,31.39
2022-08-07T11:47:38.590Z,30.99
2022-08-07T11:48:29.877Z,30.85
2022-08-07T11:49:50.390Z,30.94
2022-08-07T11:50:31.824Z,30.97
2022-08-07T11:51:40.816Z,31.07
2022-08-07T11:52:28.940Z,31.06
2022-08-07T11:53:24.251Z,30.97
2022-08-07T11:54:25.369Z,30.40
2022-08-07T11:56:26.169Z,30.13
2022-08-07T11:56:26.965Z,29.73
2022-08-07T11:57:59.757Z,29.65
2022-08-07T11:58:33.171Z,29.17
2022-08-07T12:00:11.106Z,28.78
2022-08-07T12:00:28.404Z,29.22
2022-08-07T12:01:24.065Z,29.50
2022-08-07T12:02:30.230Z,29.87
2022-08-07T12:03:45.767Z,30.32
2022-08-07T12:04:23.994Z,30.68
2022-08-07T12:05:41.396Z,30.66
2022-08-07T12:06:37.531Z,30.80
2022-08-07T12:07:27.426Z,30.99
2022-08-07T12:08:25.675Z,31.14
2022-08-07T12:09:23.950Z,30.62
2022-08-07T12:10:23.854Z,30.91
2022-08-07T12:11:23.831Z,31.10
2022-08-07T12:12:23.806Z,31.21
2022-08-07T12:13:35.577Z,31.54
2022-08-07T12:14:23.762Z,31.70
2022-08-07T12:15:46.652Z,31.99
2022-08-07T12:16:30.139Z,32.14
2022-08-07T12:17:23.688Z,32.33
2022-08-07T12:18:29.849Z,32.21
2022-08-07T12:19:23.646Z,32.36
2022-08-07T12:20:30.023Z,32.53
2022-08-07T12:21:55.648Z,32.73
2022-08-07T12:22:37.310Z,32.86
2022-08-07T12:23:37.434Z,32.59
2022-08-07T12:24:37.921Z,32.12
2022-08-07T12:26:03.310Z,32.11
2022-08-07T12:26:30.887Z,31.78
2022-08-07T12:27:28.034Z,32.12
2022-08-07T12:28:31.024Z,32.33
2022-08-07T12:29:37.674Z,32.55
2022-08-07T12:30:23.623Z,32.83
2022-08-07T12:31:23.608Z,32.77
2022-08-07T12:32:23.352Z,32.71
2022-08-07T12:33:30.776Z,31.87
2022-08-07T12:34:23.308Z,31.18
2022-08-07T12:35:24.030Z,29.98
2022-08-07T12:36:32.964Z,29.79
2022-08-07T12:37:28.316Z,30.66
2022-08-07T12:38:36.980Z,30.78
2022-08-07T12:39:42.291Z,30.99
2022-08-07T12:40:46.729Z,30.85
2022-08-07T12:41:23.209Z,30.80
2022-08-07T12:42:27.519Z,31.22
2022-08-07T12:44:01.593Z,31.61
2022-08-07T12:44:23.081Z,31.78
2022-08-07T12:45:23.073Z,31.80
2022-08-07T12:46:26.636Z,32.23
2022-08-07T12:47:31.757Z,32.45
2022-08-07T12:48:28.451Z,32.85
2022-08-07T12:49:39.813Z,32.95
2022-08-07T12:50:38.551Z,32.83
2022-08-07T12:51:22.928Z,32.87
2022-08-07T12:52:22.905Z,32.67